Vremea acum in Pecica - Romania

Vrei sa afli care e starea vremii acum in Timis - Romania? Dorim sa iti furnizam starea vremii pentru Timis - Romania. Starea vremii Timis - Romania pentru astazi.

Vremea acum in Pecica

Temperatura: 6.3 °C

Este: Senin
Se simte ca: 5.4 °C
Innorat: 0 %
Precipitatii: 0 %
Presiune atmosferica: 1019 hPa
Umiditate: 75%
Vizibilitate: 10 km
Vantul bate din SSE cu 5.4 km/h

Evolutia vremii in Pecica pe ore

Ora: 10:00
Senin
Temperatura: 15.5°C
Sansa de precipitatii: 0%
Ora Descriere Temp Se simte Precipitatii Umiditate Vant
00:00Senin11.1°11.3°0%61%WNW 4 KM/H
01:00Senin10.5°10.5°0%62%WNW 2.5 KM/H
02:00Senin10°10°0%64%NW 0.4 KM/H
03:00Senin9.3°9.3°0%67%ESE 1.4 KM/H
04:00Senin8.9°8.6°0%69%SE 4.7 KM/H
05:00Senin8.4°7.8°0%71%SE 5.4 KM/H
06:00Senin6.3°7.3°0%75%SSE 5.4 KM/H
07:00Senin8.3°7.7°0%74%S 5.4 KM/H
08:00Senin10.9°11°0%68%S 4.3 KM/H
09:00Senin13.3°13.9°0%61%SW 3.6 KM/H
10:00Senin15.5°15.5°0%56%W 4.7 KM/H
11:00Senin17.5°17.5°0%51%NW 6.1 KM/H
12:00Senin19.3°19.3°0%47%NNW 6.1 KM/H
13:00Senin20.6°20.6°0%44%NNW 6.8 KM/H
14:00Senin21.5°21.5°0%42%N 8.6 KM/H
15:00Senin22.1°24.1°0%40%N 8.3 KM/H
16:00Senin22.7°24.1°0%38%NNE 6.1 KM/H
17:00Senin22.8°24.1°0%37%NNE 4.7 KM/H
18:00Senin22.6°24.1°0%38%NNE 3.6 KM/H
19:00Senin22.2°24.4°0%47%NE 2.9 KM/H
20:00Senin18.9°18.9°0%52%ENE 2.2 KM/H
21:00Senin16.2°16.2°0%54%E 1.8 KM/H
22:00Senin15.2°15.2°0%56%ESE 1.8 KM/H
23:00Senin14.6°15.5°0%58%SE 3.2 KM/H




tutorials